Time;durP1;ratioP1;P1;durP2;ratioP2;P2;SDS_P1;SDS_P2;PMS_P1;PMS_P2;Temp;Humidity;BMP_temperature;BMP_pressure;BME280_temperature;BME280_humidity;BME280_pressure;Samples;Min_cycle;Max_cycle;Signal;HPM_P1;HPM_P2
2023/01/26 19:01:59;;;;;;;25.58;9.50;;;;;;;;;;7310744;19;20022;-77
2023/01/26 19:04:25;;;;;;;36.15;10.82;;;;;;;;;;7336885;19;20010;-77
2023/01/26 19:06:50;;;;;;;33.75;10.30;;;;;;;;;;7337836;19;20333;-76
2023/01/26 19:09:15;;;;;;;26.38;10.55;;;;;;;;;;7342694;19;20335;-76
2023/01/26 19:11:41;;;;;;;24.98;10.57;;;;;;;;;;7359349;19;20022;-75
2023/01/26 19:14:06;;;;;;;28.63;9.98;;;;;;;;;;7362035;19;20011;-77
2023/01/26 19:16:32;;;;;;;29.73;11.40;;;;;;;;;;7365196;19;20048;-78
2023/01/26 19:18:57;;;;;;;24.45;11.05;;;;;;;;;;7356029;19;20014;-77
2023/01/26 19:21:23;;;;;;;25.90;9.88;;;;;;;;;;7356220;19;20111;-75
2023/01/26 19:23:49;;;;;;;24.98;9.45;;;;;;;;;;7365660;19;20074;-74
2023/01/26 19:26:16;;;;;;;28.42;9.60;;;;;;;;;;7362597;19;20010;-76
2023/01/26 19:28:41;;;;;;;29.33;11.15;;;;;;;;;;7344402;19;19999;-76
2023/01/26 19:31:07;;;;;;;28.30;11.48;;;;;;;;;;7360818;19;20098;-75
2023/01/26 19:33:32;;;;;;;31.10;12.25;;;;;;;;;;7364327;19;19998;-75
2023/01/26 19:36:00;;;;;;;26.55;11.23;;;;;;;;;;7358055;19;20002;-75
2023/01/26 19:38:25;;;;;;;26.95;9.90;;;;;;;;;;7365555;19;20038;-76
2023/01/26 19:40:52;;;;;;;19.90;9.25;;;;;;;;;;7365835;19;20007;-75
2023/01/26 19:43:17;;;;;;;27.10;9.65;;;;;;;;;;7360547;19;20113;-75
2023/01/26 19:45:51;;;;;;;26.50;10.20;;;;;;;;;;7365961;19;20397;-75
2023/01/26 19:48:16;;;;;;;;;;;;;;;;;;7366555;19;20062;-75
2023/01/26 19:50:42;;;;;;;26.98;10.27;;;;;;;;;;7363116;19;19983;-75
2023/01/26 19:53:07;;;;;;;26.35;11.25;;;;;;;;;;7349309;19;20021;-75
2023/01/26 19:55:32;;;;;;;34.55;12.52;;;;;;;;;;7366658;19;20318;-77
2023/01/26 19:57:57;;;;;;;29.25;10.65;;;;;;;;;;7343786;19;20116;-77
2023/01/26 20:00:23;;;;;;;29.40;11.73;;;;;;;;;;7355490;19;20011;-76
2023/01/26 20:02:48;;;;;;;23.30;11.00;;;;;;;;;;7358176;19;20608;-76
2023/01/26 20:05:14;;;;;;;25.87;10.47;;;;;;;;;;7355792;19;20006;-76
2023/01/26 20:07:41;;;;;;;23.45;9.60;;;;;;;;;;7361355;19;20670;-75
2023/01/26 20:10:08;;;;;;;25.38;9.60;;;;;;;;;;7361960;19;20100;-76
2023/01/26 20:12:33;;;;;;;30.27;11.30;;;;;;;;;;7298971;19;20359;-77
2023/01/26 20:14:58;;;;;;;25.02;9.65;;;;;;;;;;7347915;19;20437;-76
2023/01/26 20:17:23;;;;;;;23.10;9.77;;;;;;;;;;7358172;19;20410;-74
2023/01/26 20:19:49;;;;;;;25.23;10.48;;;;;;;;;;7358030;19;20348;-75
2023/01/26 20:22:14;;;;;;;24.05;10.40;;;;;;;;;;7342443;19;20095;-76
2023/01/26 20:24:39;;;;;;;25.35;12.00;;;;;;;;;;7355853;19;20013;-75
2023/01/26 20:27:05;;;;;;;24.40;11.25;;;;;;;;;;7360632;19;20010;-77
2023/01/26 20:29:31;;;;;;;29.13;15.48;;;;;;;;;;7353699;19;19995;-75
2023/01/26 20:31:56;;;;;;;26.48;11.90;;;;;;;;;;7365508;19;20123;-76
2023/01/26 20:34:22;;;;;;;29.70;12.43;;;;;;;;;;7358955;19;20112;-75
2023/01/26 20:36:47;;;;;;;25.15;11.82;;;;;;;;;;7356271;19;20251;-76
2023/01/26 20:39:15;;;;;;;26.90;11.85;;;;;;;;;;7354370;19;20025;-76
2023/01/26 20:41:40;;;;;;;33.25;10.75;;;;;;;;;;7367583;19;20003;-75
2023/01/26 20:44:06;;;;;;;26.67;10.55;;;;;;;;;;7360737;19;20136;-76
2023/01/26 20:46:36;;;;;;;26.75;11.43;;;;;;;;;;7363666;19;20018;-75
2023/01/26 20:49:02;;;;;;;28.65;11.35;;;;;;;;;;7363674;19;20007;-75
2023/01/26 20:51:32;;;;;;;31.08;12.00;;;;;;;;;;7365631;19;20006;-76
2023/01/26 20:53:57;;;;;;;28.42;12.38;;;;;;;;;;7367649;19;20027;-75
2023/01/26 20:56:23;;;;;;;31.45;12.27;;;;;;;;;;7364264;19;20235;-75
2023/01/26 20:58:50;;;;;;;27.20;11.70;;;;;;;;;;7365212;19;20006;-75
2023/01/26 21:01:15;;;;;;;32.28;11.93;;;;;;;;;;7364664;19;20014;-75
2023/01/26 21:03:41;;;;;;;28.38;12.48;;;;;;;;;;7369384;19;20370;-74
2023/01/26 21:06:07;;;;;;;34.47;15.25;;;;;;;;;;7369137;19;20038;-76
2023/01/26 21:08:32;;;;;;;32.17;13.18;;;;;;;;;;7370729;19;20090;-76
2023/01/26 21:10:59;;;;;;;29.20;12.32;;;;;;;;;;7369950;19;20090;-75
2023/01/26 21:13:26;;;;;;;28.55;13.27;;;;;;;;;;7359379;19;20022;-75
2023/01/26 21:15:52;;;;;;;30.95;13.65;;;;;;;;;;7370604;19;20023;-75
2023/01/26 21:18:17;;;;;;;38.88;13.88;;;;;;;;;;7364401;19;20045;-76
2023/01/26 21:20:42;;;;;;;37.25;15.60;;;;;;;;;;7362351;19;20028;-78
2023/01/26 21:23:07;;;;;;;38.63;16.65;;;;;;;;;;7369214;19;20107;-77
2023/01/26 21:25:32;;;;;;;36.45;16.30;;;;;;;;;;7366127;19;20032;-75
2023/01/26 21:27:58;;;;;;;52.85;19.83;;;;;;;;;;7367114;19;20347;-75
2023/01/26 21:30:23;;;;;;;46.97;19.20;;;;;;;;;;7360976;19;20011;-76
2023/01/26 21:32:49;;;;;;;51.60;20.52;;;;;;;;;;7369517;19;20006;-76
2023/01/26 21:35:15;;;;;;;53.05;20.20;;;;;;;;;;7358615;19;19999;-74
2023/01/26 21:37:40;;;;;;;42.70;19.60;;;;;;;;;;7369800;19;20006;-77
2023/01/26 21:40:06;;;;;;;50.75;20.52;;;;;;;;;;7358728;19;20403;-76
2023/01/26 21:42:32;;;;;;;48.65;18.70;;;;;;;;;;7364510;19;20021;-75
2023/01/26 21:47:41;;;;;;;44.40;18.25;;;;;;;;;;7369698;19;20012;-75
2023/01/26 21:50:07;;;;;;;51.85;19.42;;;;;;;;;;7363974;19;20007;-75
2023/01/26 21:55:16;;;;;;;37.63;17.45;;;;;;;;;;7364461;19;20002;-75
2023/01/26 22:00:26;;;;;;;31.63;15.10;;;;;;;;;;7357532;19;20027;-75
2023/01/26 22:02:53;;;;;;;30.38;15.93;;;;;;;;;;7366496;19;20074;-76
2023/01/26 22:05:18;;;;;;;31.73;15.27;;;;;;;;;;7358044;19;20041;-76
2023/01/26 22:07:43;;;;;;;33.47;16.13;;;;;;;;;;7368542;19;19994;-76
2023/01/26 22:10:09;;;;;;;39.17;15.50;;;;;;;;;;7362091;19;20243;-75
2023/01/26 22:12:34;;;;;;;35.80;16.55;;;;;;;;;;7364335;19;20446;-75
2023/01/26 22:14:59;;;;;;;31.90;17.83;;;;;;;;;;7369908;19;20054;-75
2023/01/26 22:17:24;;;;;;;33.00;15.25;;;;;;;;;;7364613;19;20223;-75
2023/01/26 22:19:49;;;;;;;30.52;15.18;;;;;;;;;;7363688;19;20014;-76
2023/01/26 22:22:15;;;;;;;32.30;16.52;;;;;;;;;;7363648;19;20015;-75
2023/01/26 22:24:40;;;;;;;30.08;15.60;;;;;;;;;;7364806;19;20109;-76
2023/01/26 22:27:07;;;;;;;33.30;16.58;;;;;;;;;;7359361;19;20015;-74
2023/01/26 22:29:32;;;;;;;36.97;17.50;;;;;;;;;;7364702;19;20736;-76
2023/01/26 22:31:57;;;;;;;33.58;17.38;;;;;;;;;;7363633;19;20014;-75
2023/01/26 22:34:22;;;;;;;32.93;18.70;;;;;;;;;;7362585;19;21074;-76
2023/01/26 22:36:47;;;;;;;34.55;19.45;;;;;;;;;;7356872;19;20272;-74
2023/01/26 22:39:13;;;;;;;37.53;18.70;;;;;;;;;;7357717;19;20310;-76
2023/01/26 22:41:38;;;;;;;41.45;19.88;;;;;;;;;;7361619;19;20025;-76
2023/01/26 22:44:04;;;;;;;44.05;22.27;;;;;;;;;;7358684;19;20057;-75
2023/01/26 22:46:30;;;;;;;38.50;19.83;;;;;;;;;;7363456;19;20334;-75
2023/01/26 22:48:56;;;;;;;45.35;21.25;;;;;;;;;;7360683;19;20011;-75
2023/01/26 22:51:22;;;;;;;44.22;20.60;;;;;;;;;;7355679;19;20676;-75
2023/01/26 22:53:48;;;;;;;52.55;24.42;;;;;;;;;;7363654;19;20006;-75
2023/01/26 22:56:14;;;;;;;45.75;23.05;;;;;;;;;;7362600;19;20502;-75
2023/01/26 22:58:39;;;;;;;51.53;24.30;;;;;;;;;;7363028;19;20002;-74
2023/01/26 23:01:05;;;;;;;54.40;23.98;;;;;;;;;;7323575;19;20917;-78
2023/01/26 23:03:30;;;;;;;52.28;24.38;;;;;;;;;;7330144;19;20400;-75
